Sherrard, Illinois
Current Conditions -  °F | °C
As of 4:52 PM on Monday 24 Nov 2014 (Local Time) from KMLI Reporting Station
Overcast Overcast  
Wind Chill: 13°   Ceiling: 1900
Heat Index: 27°   Visibility: 8mi
Dew Point: 21°   Wind: 22mph
Humidity: 78%   Direction: 270°W
Pressure: 29.71"   Gusts: 32mph
Location:  41.32°N, 90.51°W
Report Text: KMLI 242252Z 27019G28KT 8SM BKN019 OVC025 M03/M06 A2971 RMK AO2 PK WND 27033/2220 SLP066 T10281061
Loading
Personal Weather Stations






























Interactive Weather Map New forecast layout! Learn more

10-Day Weather Forecast

Advertisements
Track Severe Weather on mobile